sensor_id;sensor_type;location;lat;lon;timestamp;P1;durP1;ratioP1;P2;durP2;ratioP2
9667;SDS011;4872;48.316;10.650;2023-12-22T04:51:59;1.57;;;1.10;;
9667;SDS011;4872;48.316;10.650;2023-12-22T04:54:26;2.47;;;1.83;;
9667;SDS011;4872;48.316;10.650;2023-12-22T04:56:52;2.60;;;1.33;;
9667;SDS011;4872;48.316;10.650;2023-12-22T04:59:19;2.67;;;2.07;;
9667;SDS011;4872;48.316;10.650;2023-12-22T05:01:46;2.83;;;1.60;;
9667;SDS011;4872;48.316;10.650;2023-12-22T05:04:13;4.73;;;1.20;;
9667;SDS011;4872;48.316;10.650;2023-12-22T05:06:39;2.53;;;1.13;;
9667;SDS011;4872;48.316;10.650;2023-12-22T05:09:07;2.63;;;1.30;;
9667;SDS011;4872;48.316;10.650;2023-12-22T05:11:34;2.93;;;1.27;;
9667;SDS011;4872;48.316;10.650;2023-12-22T05:14:01;2.00;;;1.10;;
9667;SDS011;4872;48.316;10.650;2023-12-22T05:16:28;1.90;;;1.30;;
9667;SDS011;4872;48.316;10.650;2023-12-22T05:18:56;3.80;;;1.83;;
9667;SDS011;4872;48.316;10.650;2023-12-22T05:21:23;2.97;;;1.40;;
9667;SDS011;4872;48.316;10.650;2023-12-22T05:23:49;2.60;;;1.40;;
9667;SDS011;4872;48.316;10.650;2023-12-22T05:26:18;2.03;;;1.20;;
9667;SDS011;4872;48.316;10.650;2023-12-22T05:28:46;4.70;;;1.43;;
9667;SDS011;4872;48.316;10.650;2023-12-22T05:31:14;4.50;;;1.60;;
9667;SDS011;4872;48.316;10.650;2023-12-22T05:33:58;3.03;;;1.50;;
9667;SDS011;4872;48.316;10.650;2023-12-22T05:36:35;5.43;;;1.63;;
9667;SDS011;4872;48.316;10.650;2023-12-22T05:39:02;2.03;;;1.37;;
9667;SDS011;4872;48.316;10.650;2023-12-22T05:41:32;4.00;;;1.47;;
9667;SDS011;4872;48.316;10.650;2023-12-22T05:44:01;3.27;;;1.50;;
9667;SDS011;4872;48.316;10.650;2023-12-22T05:46:28;1.67;;;1.57;;
9667;SDS011;4872;48.316;10.650;2023-12-22T05:48:54;2.60;;;1.73;;
9667;SDS011;4872;48.316;10.650;2023-12-22T05:51:24;2.77;;;1.60;;
9667;SDS011;4872;48.316;10.650;2023-12-22T05:53:51;4.23;;;1.50;;
9667;SDS011;4872;48.316;10.650;2023-12-22T05:56:19;3.10;;;1.80;;
9667;SDS011;4872;48.316;10.650;2023-12-22T05:58:48;3.13;;;1.57;;
9667;SDS011;4872;48.316;10.650;2023-12-22T06:01:15;3.47;;;1.60;;
9667;SDS011;4872;48.316;10.650;2023-12-22T06:03:43;3.33;;;1.40;;
9667;SDS011;4872;48.316;10.650;2023-12-22T06:06:10;3.50;;;1.40;;
9667;SDS011;4872;48.316;10.650;2023-12-22T06:08:36;2.97;;;1.77;;
9667;SDS011;4872;48.316;10.650;2023-12-22T06:11:03;4.30;;;2.07;;
9667;SDS011;4872;48.316;10.650;2023-12-22T06:13:30;3.67;;;1.57;;
9667;SDS011;4872;48.316;10.650;2023-12-22T06:15:58;2.47;;;1.77;;
9667;SDS011;4872;48.316;10.650;2023-12-22T06:18:25;2.37;;;1.70;;
9667;SDS011;4872;48.316;10.650;2023-12-22T06:20:52;3.07;;;2.20;;
9667;SDS011;4872;48.316;10.650;2023-12-22T06:23:19;2.90;;;1.40;;
9667;SDS011;4872;48.316;10.650;2023-12-22T06:25:46;2.10;;;1.60;;
9667;SDS011;4872;48.316;10.650;2023-12-22T06:28:13;4.00;;;2.00;;
9667;SDS011;4872;48.316;10.650;2023-12-22T06:30:41;2.73;;;1.80;;
9667;SDS011;4872;48.316;10.650;2023-12-22T06:33:10;5.27;;;1.80;;
9667;SDS011;4872;48.316;10.650;2023-12-22T06:35:37;3.83;;;2.07;;
9667;SDS011;4872;48.316;10.650;2023-12-22T06:38:05;5.60;;;2.77;;
9667;SDS011;4872;48.316;10.650;2023-12-22T06:40:34;2.97;;;2.53;;
9667;SDS011;4872;48.316;10.650;2023-12-22T06:43:00;3.57;;;1.60;;
9667;SDS011;4872;48.316;10.650;2023-12-22T06:45:27;5.50;;;1.80;;
9667;SDS011;4872;48.316;10.650;2023-12-22T06:47:55;3.43;;;1.37;;
9667;SDS011;4872;48.316;10.650;2023-12-22T06:50:23;6.40;;;2.20;;
9667;SDS011;4872;48.316;10.650;2023-12-22T06:52:49;1.80;;;1.47;;
9667;SDS011;4872;48.316;10.650;2023-12-22T06:55:16;2.87;;;1.73;;
9667;SDS011;4872;48.316;10.650;2023-12-22T06:57:43;3.03;;;1.60;;
9667;SDS011;4872;48.316;10.650;2023-12-22T07:00:10;3.67;;;1.73;;
9667;SDS011;4872;48.316;10.650;2023-12-22T07:02:37;4.67;;;1.60;;
9667;SDS011;4872;48.316;10.650;2023-12-22T07:07:57;5.13;;;1.80;;
9667;SDS011;4872;48.316;10.650;2023-12-22T07:10:25;3.23;;;2.10;;
9667;SDS011;4872;48.316;10.650;2023-12-22T07:12:52;3.47;;;1.63;;
9667;SDS011;4872;48.316;10.650;2023-12-22T07:15:19;3.57;;;1.80;;
9667;SDS011;4872;48.316;10.650;2023-12-22T07:17:46;5.70;;;2.63;;
9667;SDS011;4872;48.316;10.650;2023-12-22T07:20:13;6.90;;;2.53;;
9667;SDS011;4872;48.316;10.650;2023-12-22T07:22:43;5.63;;;2.63;;
9667;SDS011;4872;48.316;10.650;2023-12-22T07:25:10;4.43;;;2.30;;
9667;SDS011;4872;48.316;10.650;2023-12-22T07:27:37;5.23;;;2.60;;
9667;SDS011;4872;48.316;10.650;2023-12-22T07:30:04;5.80;;;1.90;;
9667;SDS011;4872;48.316;10.650;2023-12-22T07:32:32;2.47;;;1.77;;
9667;SDS011;4872;48.316;10.650;2023-12-22T07:34:59;4.70;;;2.00;;
9667;SDS011;4872;48.316;10.650;2023-12-22T07:37:25;3.13;;;1.80;;
9667;SDS011;4872;48.316;10.650;2023-12-22T07:39:53;4.00;;;1.77;;
9667;SDS011;4872;48.316;10.650;2023-12-22T07:42:20;5.80;;;2.07;;
9667;SDS011;4872;48.316;10.650;2023-12-22T07:44:47;5.50;;;1.93;;
9667;SDS011;4872;48.316;10.650;2023-12-22T07:47:14;4.10;;;1.60;;
9667;SDS011;4872;48.316;10.650;2023-12-22T07:49:40;4.43;;;1.80;;
9667;SDS011;4872;48.316;10.650;2023-12-22T07:52:07;4.90;;;1.80;;
9667;SDS011;4872;48.316;10.650;2023-12-22T07:54:34;5.63;;;2.27;;
9667;SDS011;4872;48.316;10.650;2023-12-22T07:57:04;4.53;;;2.17;;
9667;SDS011;4872;48.316;10.650;2023-12-22T07:59:31;4.53;;;2.67;;
9667;SDS011;4872;48.316;10.650;2023-12-22T08:01:57;5.33;;;2.33;;
9667;SDS011;4872;48.316;10.650;2023-12-22T08:04:24;4.67;;;2.10;;
9667;SDS011;4872;48.316;10.650;2023-12-22T08:06:52;2.97;;;1.90;;
9667;SDS011;4872;48.316;10.650;2023-12-22T08:09:32;3.37;;;2.07;;
9667;SDS011;4872;48.316;10.650;2023-12-22T08:11:59;5.73;;;2.23;;
9667;SDS011;4872;48.316;10.650;2023-12-22T08:14:28;7.37;;;3.40;;
9667;SDS011;4872;48.316;10.650;2023-12-22T08:16:54;5.33;;;2.37;;
9667;SDS011;4872;48.316;10.650;2023-12-22T08:19:21;6.20;;;2.00;;
9667;SDS011;4872;48.316;10.650;2023-12-22T08:21:48;3.60;;;1.80;;
9667;SDS011;4872;48.316;10.650;2023-12-22T08:24:15;3.63;;;1.80;;
9667;SDS011;4872;48.316;10.650;2023-12-22T08:26:46;5.53;;;2.50;;
9667;SDS011;4872;48.316;10.650;2023-12-22T08:29:38;4.47;;;2.07;;
9667;SDS011;4872;48.316;10.650;2023-12-22T08:32:05;4.80;;;2.33;;
9667;SDS011;4872;48.316;10.650;2023-12-22T08:34:32;5.17;;;2.03;;
9667;SDS011;4872;48.316;10.650;2023-12-22T08:36:59;3.23;;;2.10;;
9667;SDS011;4872;48.316;10.650;2023-12-22T08:39:26;7.40;;;2.63;;
9667;SDS011;4872;48.316;10.650;2023-12-22T08:41:53;4.63;;;2.13;;
9667;SDS011;4872;48.316;10.650;2023-12-22T08:44:20;4.40;;;2.43;;
9667;SDS011;4872;48.316;10.650;2023-12-22T08:46:48;8.63;;;3.40;;
9667;SDS011;4872;48.316;10.650;2023-12-22T08:49:16;11.07;;;3.50;;
9667;SDS011;4872;48.316;10.650;2023-12-22T08:51:42;4.93;;;3.03;;
9667;SDS011;4872;48.316;10.650;2023-12-22T08:54:09;5.27;;;2.27;;
9667;SDS011;4872;48.316;10.650;2023-12-22T08:56:36;5.07;;;2.10;;
9667;SDS011;4872;48.316;10.650;2023-12-22T08:59:03;12.43;;;2.90;;
9667;SDS011;4872;48.316;10.650;2023-12-22T09:01:29;7.43;;;2.93;;
9667;SDS011;4872;48.316;10.650;2023-12-22T09:03:57;6.50;;;2.23;;
9667;SDS011;4872;48.316;10.650;2023-12-22T09:06:24;5.23;;;2.90;;
9667;SDS011;4872;48.316;10.650;2023-12-22T09:08:51;4.73;;;2.10;;
9667;SDS011;4872;48.316;10.650;2023-12-22T09:11:19;6.27;;;2.37;;
9667;SDS011;4872;48.316;10.650;2023-12-22T09:13:46;4.00;;;2.30;;
9667;SDS011;4872;48.316;10.650;2023-12-22T09:16:13;4.30;;;2.03;;
9667;SDS011;4872;48.316;10.650;2023-12-22T09:18:40;2.47;;;1.37;;
9667;SDS011;4872;48.316;10.650;2023-12-22T09:21:09;4.43;;;2.40;;
9667;SDS011;4872;48.316;10.650;2023-12-22T09:23:35;3.07;;;1.60;;
9667;SDS011;4872;48.316;10.650;2023-12-22T09:26:20;3.90;;;2.17;;
9667;SDS011;4872;48.316;10.650;2023-12-22T09:28:47;2.27;;;1.60;;
9667;SDS011;4872;48.316;10.650;2023-12-22T09:31:14;5.20;;;1.80;;
9667;SDS011;4872;48.316;10.650;2023-12-22T09:33:42;3.10;;;1.57;;
9667;SDS011;4872;48.316;10.650;2023-12-22T09:36:10;6.37;;;2.60;;
9667;SDS011;4872;48.316;10.650;2023-12-22T09:38:37;6.87;;;2.67;;
9667;SDS011;4872;48.316;10.650;2023-12-22T09:41:04;7.60;;;4.27;;
9667;SDS011;4872;48.316;10.650;2023-12-22T09:43:30;12.43;;;7.03;;
9667;SDS011;4872;48.316;10.650;2023-12-22T09:46:01;14.40;;;8.27;;
9667;SDS011;4872;48.316;10.650;2023-12-22T09:48:29;15.60;;;8.37;;
9667;SDS011;4872;48.316;10.650;2023-12-22T09:50:57;12.60;;;6.90;;
9667;SDS011;4872;48.316;10.650;2023-12-22T09:53:28;12.43;;;8.50;;
9667;SDS011;4872;48.316;10.650;2023-12-22T09:55:57;9.87;;;7.23;;
9667;SDS011;4872;48.316;10.650;2023-12-22T09:58:28;8.57;;;4.73;;
9667;SDS011;4872;48.316;10.650;2023-12-22T10:00:55;8.97;;;4.00;;
9667;SDS011;4872;48.316;10.650;2023-12-22T10:03:23;9.57;;;3.93;;
9667;SDS011;4872;48.316;10.650;2023-12-22T10:05:52;7.80;;;4.20;;
9667;SDS011;4872;48.316;10.650;2023-12-22T10:08:18;9.13;;;4.90;;
9667;SDS011;4872;48.316;10.650;2023-12-22T10:10:47;7.87;;;3.47;;
9667;SDS011;4872;48.316;10.650;2023-12-22T10:13:17;13.57;;;4.83;;
9667;SDS011;4872;48.316;10.650;2023-12-22T10:15:44;7.40;;;3.00;;
9667;SDS011;4872;48.316;10.650;2023-12-22T10:18:34;8.63;;;2.93;;
9667;SDS011;4872;48.316;10.650;2023-12-22T10:21:01;5.33;;;3.20;;
9667;SDS011;4872;48.316;10.650;2023-12-22T10:23:28;5.43;;;3.20;;
9667;SDS011;4872;48.316;10.650;2023-12-22T10:25:58;5.47;;;2.50;;
9667;SDS011;4872;48.316;10.650;2023-12-22T10:28:26;7.70;;;2.87;;
9667;SDS011;4872;48.316;10.650;2023-12-22T10:30:53;13.87;;;7.97;;
9667;SDS011;4872;48.316;10.650;2023-12-22T10:33:24;9.63;;;5.77;;
9667;SDS011;4872;48.316;10.650;2023-12-22T10:38:27;4.87;;;2.17;;
9667;SDS011;4872;48.316;10.650;2023-12-22T10:41:01;6.40;;;2.20;;
9667;SDS011;4872;48.316;10.650;2023-12-22T10:43:28;4.30;;;1.97;;
9667;SDS011;4872;48.316;10.650;2023-12-22T10:45:55;3.17;;;2.47;;
9667;SDS011;4872;48.316;10.650;2023-12-22T10:48:22;7.47;;;4.23;;
9667;SDS011;4872;48.316;10.650;2023-12-22T10:50:49;6.97;;;4.57;;
9667;SDS011;4872;48.316;10.650;2023-12-22T10:53:15;8.17;;;3.70;;
9667;SDS011;4872;48.316;10.650;2023-12-22T10:55:48;6.00;;;2.30;;
9667;SDS011;4872;48.316;10.650;2023-12-22T10:58:17;2.97;;;2.17;;
9667;SDS011;4872;48.316;10.650;2023-12-22T11:00:47;3.93;;;2.00;;
9667;SDS011;4872;48.316;10.650;2023-12-22T11:06:41;4.07;;;1.87;;
9667;SDS011;4872;48.316;10.650;2023-12-22T11:09:09;4.70;;;2.67;;
9667;SDS011;4872;48.316;10.650;2023-12-22T11:11:37;4.80;;;2.20;;
9667;SDS011;4872;48.316;10.650;2023-12-22T11:14:06;5.40;;;2.30;;
9667;SDS011;4872;48.316;10.650;2023-12-22T11:16:35;4.53;;;2.30;;
9667;SDS011;4872;48.316;10.650;2023-12-22T11:19:03;3.20;;;2.17;;
9667;SDS011;4872;48.316;10.650;2023-12-22T11:21:30;4.17;;;2.07;;
9667;SDS011;4872;48.316;10.650;2023-12-22T11:23:57;3.77;;;2.40;;
9667;SDS011;4872;48.316;10.650;2023-12-22T11:26:24;5.47;;;2.67;;
9667;SDS011;4872;48.316;10.650;2023-12-22T11:28:51;3.23;;;2.03;;
9667;SDS011;4872;48.316;10.650;2023-12-22T11:31:20;5.07;;;2.40;;
9667;SDS011;4872;48.316;10.650;2023-12-22T11:33:48;3.93;;;2.40;;
9667;SDS011;4872;48.316;10.650;2023-12-22T11:36:16;4.63;;;2.20;;
9667;SDS011;4872;48.316;10.650;2023-12-22T11:38:44;2.67;;;1.70;;
9667;SDS011;4872;48.316;10.650;2023-12-22T11:41:12;5.27;;;2.90;;
9667;SDS011;4872;48.316;10.650;2023-12-22T11:43:43;4.67;;;1.97;;
9667;SDS011;4872;48.316;10.650;2023-12-22T11:46:11;3.30;;;2.07;;
9667;SDS011;4872;48.316;10.650;2023-12-22T11:48:40;4.43;;;2.23;;
9667;SDS011;4872;48.316;10.650;2023-12-22T11:51:13;5.30;;;2.70;;
9667;SDS011;4872;48.316;10.650;2023-12-22T11:53:40;3.83;;;2.33;;
9667;SDS011;4872;48.316;10.650;2023-12-22T11:56:07;4.00;;;2.67;;
9667;SDS011;4872;48.316;10.650;2023-12-22T11:58:35;2.87;;;2.30;;
9667;SDS011;4872;48.316;10.650;2023-12-22T12:01:05;4.93;;;2.90;;
9667;SDS011;4872;48.316;10.650;2023-12-22T12:03:35;5.33;;;2.77;;
9667;SDS011;4872;48.316;10.650;2023-12-22T12:06:17;5.60;;;2.37;;
9667;SDS011;4872;48.316;10.650;2023-12-22T12:08:56;3.90;;;2.53;;
9667;SDS011;4872;48.316;10.650;2023-12-22T12:11:23;3.80;;;2.30;;
9667;SDS011;4872;48.316;10.650;2023-12-22T12:14:31;2.80;;;1.87;;
9667;SDS011;4872;48.316;10.650;2023-12-22T12:17:00;2.63;;;1.53;;
9667;SDS011;4872;48.316;10.650;2023-12-22T12:19:33;5.27;;;2.40;;
9667;SDS011;4872;48.316;10.650;2023-12-22T12:22:01;1.90;;;1.70;;
9667;SDS011;4872;48.316;10.650;2023-12-22T12:24:28;3.20;;;1.90;;
9667;SDS011;4872;48.316;10.650;2023-12-22T12:26:55;2.67;;;1.63;;
9667;SDS011;4872;48.316;10.650;2023-12-22T12:29:22;2.83;;;1.90;;
9667;SDS011;4872;48.316;10.650;2023-12-22T12:31:49;5.00;;;2.30;;
9667;SDS011;4872;48.316;10.650;2023-12-22T12:34:17;4.87;;;2.80;;
9667;SDS011;4872;48.316;10.650;2023-12-22T12:36:46;7.40;;;3.17;;
9667;SDS011;4872;48.316;10.650;2023-12-22T12:39:15;4.30;;;1.90;;
9667;SDS011;4872;48.316;10.650;2023-12-22T12:41:44;4.63;;;2.20;;
9667;SDS011;4872;48.316;10.650;2023-12-22T12:44:18;4.23;;;2.20;;
9667;SDS011;4872;48.316;10.650;2023-12-22T12:46:47;3.27;;;1.83;;
9667;SDS011;4872;48.316;10.650;2023-12-22T12:49:14;6.40;;;3.00;;
9667;SDS011;4872;48.316;10.650;2023-12-22T12:51:42;3.90;;;2.10;;
9667;SDS011;4872;48.316;10.650;2023-12-22T12:54:10;4.07;;;2.20;;
9667;SDS011;4872;48.316;10.650;2023-12-22T12:56:39;3.90;;;1.53;;
9667;SDS011;4872;48.316;10.650;2023-12-22T12:59:07;3.17;;;2.17;;
9667;SDS011;4872;48.316;10.650;2023-12-22T13:01:37;3.13;;;1.87;;
9667;SDS011;4872;48.316;10.650;2023-12-22T13:04:05;4.70;;;1.83;;
9667;SDS011;4872;48.316;10.650;2023-12-22T13:06:31;4.33;;;2.30;;
9667;SDS011;4872;48.316;10.650;2023-12-22T13:08:59;3.03;;;1.90;;
9667;SDS011;4872;48.316;10.650;2023-12-22T13:11:26;5.37;;;2.40;;
9667;SDS011;4872;48.316;10.650;2023-12-22T13:13:57;5.40;;;2.60;;
9667;SDS011;4872;48.316;10.650;2023-12-22T13:16:24;4.57;;;2.13;;
9667;SDS011;4872;48.316;10.650;2023-12-22T13:18:54;6.47;;;2.50;;
9667;SDS011;4872;48.316;10.650;2023-12-22T13:21:22;6.53;;;2.83;;
9667;SDS011;4872;48.316;10.650;2023-12-22T13:26:34;4.07;;;1.80;;
9667;SDS011;4872;48.316;10.650;2023-12-22T13:29:02;7.40;;;5.63;;
9667;SDS011;4872;48.316;10.650;2023-12-22T13:31:29;4.20;;;1.90;;
9667;SDS011;4872;48.316;10.650;2023-12-22T13:33:57;5.40;;;2.40;;
9667;SDS011;4872;48.316;10.650;2023-12-22T13:36:24;4.37;;;2.13;;
9667;SDS011;4872;48.316;10.650;2023-12-22T13:38:51;5.23;;;2.80;;
9667;SDS011;4872;48.316;10.650;2023-12-22T13:41:18;5.00;;;1.73;;
9667;SDS011;4872;48.316;10.650;2023-12-22T13:43:45;4.57;;;2.47;;
9667;SDS011;4872;48.316;10.650;2023-12-22T13:46:14;3.47;;;2.20;;
9667;SDS011;4872;48.316;10.650;2023-12-22T13:48:41;5.20;;;2.67;;
9667;SDS011;4872;48.316;10.650;2023-12-22T13:51:07;4.97;;;2.50;;
9667;SDS011;4872;48.316;10.650;2023-12-22T13:53:35;4.00;;;2.63;;
9667;SDS011;4872;48.316;10.650;2023-12-22T13:56:12;2.50;;;2.17;;
9667;SDS011;4872;48.316;10.650;2023-12-22T13:58:43;2.60;;;1.90;;
9667;SDS011;4872;48.316;10.650;2023-12-22T14:01:13;4.00;;;2.23;;
9667;SDS011;4872;48.316;10.650;2023-12-22T14:03:42;3.30;;;1.90;;
9667;SDS011;4872;48.316;10.650;2023-12-22T14:06:11;3.07;;;1.50;;
9667;SDS011;4872;48.316;10.650;2023-12-22T14:08:38;4.53;;;2.20;;
9667;SDS011;4872;48.316;10.650;2023-12-22T14:11:06;3.70;;;1.90;;
9667;SDS011;4872;48.316;10.650;2023-12-22T14:13:33;3.20;;;2.23;;
9667;SDS011;4872;48.316;10.650;2023-12-22T14:16:04;3.07;;;1.90;;
9667;SDS011;4872;48.316;10.650;2023-12-22T14:18:32;2.50;;;1.60;;
9667;SDS011;4872;48.316;10.650;2023-12-22T14:20:59;2.23;;;1.43;;
9667;SDS011;4872;48.316;10.650;2023-12-22T14:23:26;2.93;;;1.43;;
9667;SDS011;4872;48.316;10.650;2023-12-22T14:25:53;1.70;;;1.27;;
9667;SDS011;4872;48.316;10.650;2023-12-22T14:28:20;1.73;;;1.10;;
9667;SDS011;4872;48.316;10.650;2023-12-22T14:30:47;4.30;;;1.60;;
9667;SDS011;4872;48.316;10.650;2023-12-22T14:33:14;1.80;;;1.20;;
9667;SDS011;4872;48.316;10.650;2023-12-22T14:35:42;3.20;;;1.40;;
9667;SDS011;4872;48.316;10.650;2023-12-22T14:38:09;1.37;;;1.23;;
9667;SDS011;4872;48.316;10.650;2023-12-22T14:40:36;2.37;;;1.63;;
9667;SDS011;4872;48.316;10.650;2023-12-22T14:43:03;2.87;;;1.30;;
9667;SDS011;4872;48.316;10.650;2023-12-22T14:45:29;2.57;;;1.27;;
9667;SDS011;4872;48.316;10.650;2023-12-22T14:47:56;1.30;;;1.13;;
9667;SDS011;4872;48.316;10.650;2023-12-22T14:50:23;2.03;;;1.00;;
9667;SDS011;4872;48.316;10.650;2023-12-22T14:52:51;1.83;;;1.20;;
9667;SDS011;4872;48.316;10.650;2023-12-22T14:55:18;2.43;;;1.40;;
9667;SDS011;4872;48.316;10.650;2023-12-22T14:57:45;2.70;;;1.67;;
9667;SDS011;4872;48.316;10.650;2023-12-22T15:00:12;3.00;;;1.80;;
9667;SDS011;4872;48.316;10.650;2023-12-22T15:02:40;2.90;;;2.03;;
9667;SDS011;4872;48.316;10.650;2023-12-22T15:05:06;3.50;;;2.20;;
9667;SDS011;4872;48.316;10.650;2023-12-22T15:07:34;1.43;;;1.23;;
9667;SDS011;4872;48.316;10.650;2023-12-22T15:10:02;1.53;;;1.03;;
9667;SDS011;4872;48.316;10.650;2023-12-22T15:12:30;1.50;;;1.10;;
9667;SDS011;4872;48.316;10.650;2023-12-22T15:15:01;1.10;;;1.10;;
9667;SDS011;4872;48.316;10.650;2023-12-22T15:17:28;1.53;;;1.23;;
9667;SDS011;4872;48.316;10.650;2023-12-22T15:19:55;0.90;;;0.90;;
9667;SDS011;4872;48.316;10.650;2023-12-22T15:22:22;1.53;;;0.97;;
9667;SDS011;4872;48.316;10.650;2023-12-22T15:24:49;1.23;;;1.13;;
9667;SDS011;4872;48.316;10.650;2023-12-22T15:27:18;1.30;;;1.20;;
9667;SDS011;4872;48.316;10.650;2023-12-22T15:29:45;0.83;;;0.83;;
9667;SDS011;4872;48.316;10.650;2023-12-22T15:32:12;0.90;;;0.90;;
9667;SDS011;4872;48.316;10.650;2023-12-22T15:34:40;1.27;;;1.17;;
9667;SDS011;4872;48.316;10.650;2023-12-22T15:37:08;1.30;;;1.20;;
9667;SDS011;4872;48.316;10.650;2023-12-22T15:39:34;0.97;;;0.97;;
9667;SDS011;4872;48.316;10.650;2023-12-22T15:42:01;1.17;;;1.07;;
9667;SDS011;4872;48.316;10.650;2023-12-22T15:44:30;2.30;;;1.63;;
9667;SDS011;4872;48.316;10.650;2023-12-22T15:46:57;1.30;;;1.20;;
9667;SDS011;4872;48.316;10.650;2023-12-22T15:49:23;1.33;;;1.20;;
9667;SDS011;4872;48.316;10.650;2023-12-22T15:51:50;1.20;;;1.10;;
9667;SDS011;4872;48.316;10.650;2023-12-22T15:54:20;1.10;;;1.10;;
9667;SDS011;4872;48.316;10.650;2023-12-22T15:56:47;3.50;;;2.27;;
9667;SDS011;4872;48.316;10.650;2023-12-22T15:59:14;1.60;;;1.30;;
9667;SDS011;4872;48.316;10.650;2023-12-22T16:01:45;2.37;;;2.13;;
9667;SDS011;4872;48.316;10.650;2023-12-22T16:04:12;1.80;;;1.70;;
9667;SDS011;4872;48.316;10.650;2023-12-22T16:06:39;2.73;;;2.13;;
9667;SDS011;4872;48.316;10.650;2023-12-22T16:09:06;2.73;;;1.90;;
9667;SDS011;4872;48.316;10.650;2023-12-22T16:11:32;4.47;;;2.37;;
9667;SDS011;4872;48.316;10.650;2023-12-22T16:13:59;2.07;;;1.87;;
9667;SDS011;4872;48.316;10.650;2023-12-22T16:16:26;5.90;;;3.80;;
9667;SDS011;4872;48.316;10.650;2023-12-22T16:18:54;6.07;;;3.50;;
9667;SDS011;4872;48.316;10.650;2023-12-22T16:21:21;6.27;;;3.30;;
9667;SDS011;4872;48.316;10.650;2023-12-22T16:23:48;3.27;;;2.30;;
9667;SDS011;4872;48.316;10.650;2023-12-22T16:26:18;1.50;;;1.40;;
9667;SDS011;4872;48.316;10.650;2023-12-22T16:28:46;12.50;;;2.83;;
9667;SDS011;4872;48.316;10.650;2023-12-22T16:31:13;2.43;;;1.63;;
9667;SDS011;4872;48.316;10.650;2023-12-22T16:33:39;3.10;;;2.47;;
9667;SDS011;4872;48.316;10.650;2023-12-22T16:36:11;3.03;;;2.40;;
9667;SDS011;4872;48.316;10.650;2023-12-22T16:38:37;2.10;;;1.50;;
9667;SDS011;4872;48.316;10.650;2023-12-22T16:41:04;2.07;;;1.67;;
9667;SDS011;4872;48.316;10.650;2023-12-22T16:43:31;1.53;;;1.40;;
9667;SDS011;4872;48.316;10.650;2023-12-22T16:45:59;1.33;;;1.23;;
9667;SDS011;4872;48.316;10.650;2023-12-22T16:48:25;1.33;;;1.27;;
9667;SDS011;4872;48.316;10.650;2023-12-22T16:50:52;1.20;;;1.10;;
9667;SDS011;4872;48.316;10.650;2023-12-22T16:53:22;3.90;;;2.60;;
9667;SDS011;4872;48.316;10.650;2023-12-22T16:55:48;2.80;;;2.43;;
9667;SDS011;4872;48.316;10.650;2023-12-22T16:58:15;6.00;;;3.50;;
9667;SDS011;4872;48.316;10.650;2023-12-22T17:00:42;5.10;;;3.83;;
9667;SDS011;4872;48.316;10.650;2023-12-22T17:03:08;2.13;;;1.30;;
9667;SDS011;4872;48.316;10.650;2023-12-22T17:05:35;1.97;;;1.50;;
9667;SDS011;4872;48.316;10.650;2023-12-22T17:08:06;2.50;;;1.77;;
9667;SDS011;4872;48.316;10.650;2023-12-22T17:10:34;1.70;;;1.60;;
9667;SDS011;4872;48.316;10.650;2023-12-22T17:13:01;1.23;;;1.10;;
9667;SDS011;4872;48.316;10.650;2023-12-22T17:15:27;1.10;;;1.10;;
9667;SDS011;4872;48.316;10.650;2023-12-22T17:17:54;1.50;;;1.40;;
9667;SDS011;4872;48.316;10.650;2023-12-22T17:20:21;1.20;;;1.10;;
9667;SDS011;4872;48.316;10.650;2023-12-22T17:22:48;1.60;;;0.90;;
9667;SDS011;4872;48.316;10.650;2023-12-22T17:25:15;1.07;;;0.97;;
9667;SDS011;4872;48.316;10.650;2023-12-22T17:27:44;1.60;;;1.10;;
9667;SDS011;4872;48.316;10.650;2023-12-22T17:30:11;0.90;;;0.90;;
9667;SDS011;4872;48.316;10.650;2023-12-22T17:32:38;1.03;;;1.03;;
9667;SDS011;4872;48.316;10.650;2023-12-22T17:35:05;0.83;;;0.83;;
9667;SDS011;4872;48.316;10.650;2023-12-22T17:37:32;0.90;;;0.90;;
9667;SDS011;4872;48.316;10.650;2023-12-22T17:39:59;0.80;;;0.80;;
9667;SDS011;4872;48.316;10.650;2023-12-22T17:42:26;0.97;;;0.97;;
9667;SDS011;4872;48.316;10.650;2023-12-22T17:44:54;1.03;;;0.93;;
9667;SDS011;4872;48.316;10.650;2023-12-22T17:47:21;0.70;;;0.70;;
9667;SDS011;4872;48.316;10.650;2023-12-22T17:49:48;0.80;;;0.80;;
9667;SDS011;4872;48.316;10.650;2023-12-22T17:52:14;0.80;;;0.80;;
9667;SDS011;4872;48.316;10.650;2023-12-22T17:54:41;1.00;;;1.00;;
9667;SDS011;4872;48.316;10.650;2023-12-22T17:57:08;1.20;;;1.10;;
9667;SDS011;4872;48.316;10.650;2023-12-22T17:59:37;1.30;;;1.20;;
9667;SDS011;4872;48.316;10.650;2023-12-22T18:02:07;1.43;;;1.33;;
9667;SDS011;4872;48.316;10.650;2023-12-22T18:04:35;1.30;;;1.20;;
9667;SDS011;4872;48.316;10.650;2023-12-22T18:07:02;1.03;;;1.00;;
9667;SDS011;4872;48.316;10.650;2023-12-22T18:09:30;1.47;;;1.20;;
9667;SDS011;4872;48.316;10.650;2023-12-22T18:11:56;1.23;;;1.13;;
9667;SDS011;4872;48.316;10.650;2023-12-22T18:14:23;1.20;;;1.20;;
9667;SDS011;4872;48.316;10.650;2023-12-22T18:16:50;1.30;;;1.20;;
9667;SDS011;4872;48.316;10.650;2023-12-22T18:19:18;1.97;;;1.30;;
9667;SDS011;4872;48.316;10.650;2023-12-22T18:21:45;2.57;;;1.60;;
9667;SDS011;4872;48.316;10.650;2023-12-22T18:24:11;1.23;;;1.10;;
9667;SDS011;4872;48.316;10.650;2023-12-22T18:26:38;1.50;;;1.40;;
9667;SDS011;4872;48.316;10.650;2023-12-22T18:29:05;1.40;;;1.30;;
9667;SDS011;4872;48.316;10.650;2023-12-22T18:31:32;0.93;;;0.93;;
9667;SDS011;4872;48.316;10.650;2023-12-22T18:33:58;1.10;;;1.00;;
9667;SDS011;4872;48.316;10.650;2023-12-22T18:36:30;1.33;;;1.27;;
9667;SDS011;4872;48.316;10.650;2023-12-22T18:38:56;2.87;;;2.10;;
9667;SDS011;4872;48.316;10.650;2023-12-22T18:41:24;2.67;;;1.80;;
9667;SDS011;4872;48.316;10.650;2023-12-22T18:43:50;2.97;;;1.53;;
9667;SDS011;4872;48.316;10.650;2023-12-22T18:46:17;2.17;;;1.50;;
9667;SDS011;4872;48.316;10.650;2023-12-22T18:48:44;1.63;;;1.40;;
9667;SDS011;4872;48.316;10.650;2023-12-22T18:51:14;1.97;;;1.53;;
9667;SDS011;4872;48.316;10.650;2023-12-22T18:53:43;1.40;;;1.30;;
9667;SDS011;4872;48.316;10.650;2023-12-22T18:56:10;2.53;;;1.53;;
9667;SDS011;4872;48.316;10.650;2023-12-22T18:58:38;1.77;;;1.40;;
9667;SDS011;4872;48.316;10.650;2023-12-22T19:01:05;3.27;;;1.73;;
9667;SDS011;4872;48.316;10.650;2023-12-22T19:03:33;2.57;;;2.10;;
9667;SDS011;4872;48.316;10.650;2023-12-22T19:05:59;3.13;;;1.97;;
9667;SDS011;4872;48.316;10.650;2023-12-22T19:08:26;5.60;;;2.63;;
9667;SDS011;4872;48.316;10.650;2023-12-22T19:10:55;2.60;;;1.40;;
9667;SDS011;4872;48.316;10.650;2023-12-22T19:13:21;3.90;;;1.90;;
9667;SDS011;4872;48.316;10.650;2023-12-22T19:15:48;2.70;;;1.50;;
9667;SDS011;4872;48.316;10.650;2023-12-22T19:18:15;4.63;;;2.50;;
9667;SDS011;4872;48.316;10.650;2023-12-22T19:20:42;3.40;;;2.33;;
9667;SDS011;4872;48.316;10.650;2023-12-22T19:23:09;5.67;;;3.37;;
9667;SDS011;4872;48.316;10.650;2023-12-22T19:25:36;4.23;;;2.60;;
9667;SDS011;4872;48.316;10.650;2023-12-22T19:28:04;1.23;;;1.13;;
9667;SDS011;4872;48.316;10.650;2023-12-22T19:30:31;1.50;;;1.40;;
9667;SDS011;4872;48.316;10.650;2023-12-22T19:32:58;1.53;;;1.30;;
9667;SDS011;4872;48.316;10.650;2023-12-22T19:35:26;1.57;;;1.47;;
9667;SDS011;4872;48.316;10.650;2023-12-22T19:37:53;1.50;;;1.40;;
9667;SDS011;4872;48.316;10.650;2023-12-22T19:40:20;1.70;;;1.60;;
9667;SDS011;4872;48.316;10.650;2023-12-22T19:42:47;1.47;;;1.30;;
9667;SDS011;4872;48.316;10.650;2023-12-22T19:45:15;1.00;;;1.00;;
9667;SDS011;4872;48.316;10.650;2023-12-22T19:47:42;0.90;;;0.90;;
9667;SDS011;4872;48.316;10.650;2023-12-22T19:50:09;1.30;;;0.90;;
9667;SDS011;4872;48.316;10.650;2023-12-22T19:52:36;0.80;;;0.80;;
9667;SDS011;4872;48.316;10.650;2023-12-22T19:55:03;1.00;;;0.90;;
9667;SDS011;4872;48.316;10.650;2023-12-22T19:57:31;1.23;;;0.90;;
9667;SDS011;4872;48.316;10.650;2023-12-22T19:59:58;0.70;;;0.70;;
9667;SDS011;4872;48.316;10.650;2023-12-22T20:02:26;0.90;;;0.90;;
9667;SDS011;4872;48.316;10.650;2023-12-22T20:04:53;0.80;;;0.80;;
9667;SDS011;4872;48.316;10.650;2023-12-22T20:07:18;1.10;;;0.90;;